Time;durP1;ratioP1;P1;durP2;ratioP2;P2;SDS_P1;SDS_P2;PMS_P1;PMS_P2;Temp;Humidity;BMP_temperature;BMP_pressure;BME280_temperature;BME280_humidity;BME280_pressure;Samples;Min_cycle;Max_cycle;Signal;HPM_P1;HPM_P2
2021/09/03 00:00:32;;;;;;;16.75;10.50;;;;;;;18.32;54.66;102297.06;4974993;28;124595;-63
2021/09/03 00:02:59;;;;;;;17.13;10.35;;;;;;;18.31;54.90;102295.34;4954576;28;113506;-63
2021/09/03 00:05:26;;;;;;;17.17;10.80;;;;;;;18.28;54.90;102296.38;4980287;28;114292;-64
2021/09/03 00:07:53;;;;;;;19.45;10.23;;;;;;;18.28;55.02;102295.50;4970283;28;124151;-64
2021/09/03 00:10:21;;;;;;;15.98;10.32;;;;;;;18.26;55.12;102292.91;4979393;28;124194;-64
2021/09/03 00:12:49;;;;;;;17.48;11.20;;;;;;;18.27;55.22;102299.13;4974852;28;114092;-64
2021/09/03 00:15:17;;;;;;;19.55;11.40;;;;;;;18.26;55.29;102297.41;4962872;28;114453;-64
2021/09/03 00:17:45;;;;;;;17.35;10.73;;;;;;;18.25;55.23;102306.38;4982998;28;123940;-64
2021/09/03 00:20:13;;;;;;;18.00;11.00;;;;;;;18.24;55.58;102296.63;4974542;28;123785;-64
2021/09/03 00:22:42;;;;;;;21.67;11.18;;;;;;;18.22;55.42;102301.22;4980095;28;114521;-64
2021/09/03 00:25:11;;;;;;;17.38;10.63;;;;;;;18.22;55.22;102295.84;4961426;28;113158;-64
2021/09/03 00:27:39;;;;;;;17.85;11.15;;;;;;;18.18;55.57;102295.16;4973896;28;124864;-64
2021/09/03 00:30:07;;;;;;;18.55;11.27;;;;;;;18.16;55.34;102290.78;4967828;28;124144;-64
2021/09/03 00:32:34;;;;;;;18.10;10.65;;;;;;;18.14;55.65;102292.69;4976494;28;114399;-64
2021/09/03 00:35:02;;;;;;;18.05;10.48;;;;;;;18.13;55.68;102280.25;4971160;28;113847;-64
2021/09/03 00:37:29;;;;;;;17.52;10.45;;;;;;;18.08;55.63;102278.69;4963831;28;125004;-64
2021/09/03 00:39:57;;;;;;;19.40;10.43;;;;;;;18.07;55.85;102274.25;4959240;28;123032;-64
2021/09/03 00:42:24;;;;;;;17.08;10.23;;;;;;;18.06;55.58;102275.22;4971853;28;114959;-64
2021/09/03 00:44:51;;;;;;;15.82;10.38;;;;;;;18.04;55.58;102277.09;4973236;28;114352;-64
2021/09/03 00:47:19;;;;;;;15.30;9.90;;;;;;;18.02;55.59;102273.63;4971273;28;124380;-64
2021/09/03 00:49:46;;;;;;;17.95;10.60;;;;;;;18.01;55.54;102266.56;4953603;28;122703;-63
2021/09/03 00:52:14;;;;;;;15.98;10.20;;;;;;;18.00;55.43;102270.19;4985865;28;115032;-63
2021/09/03 00:54:41;;;;;;;19.63;10.98;;;;;;;17.97;55.58;102267.69;4970984;28;113877;-63
2021/09/03 00:57:10;;;;;;;17.70;10.02;;;;;;;17.96;55.51;102268.59;4956247;28;123080;-63
2021/09/03 00:59:37;;;;;;;16.25;10.20;;;;;;;17.92;55.49;102259.00;4947000;28;124042;-63
2021/09/03 01:02:04;;;;;;;15.60;10.80;;;;;;;17.91;55.74;102265.31;4978202;28;114173;-63
2021/09/03 01:04:33;;;;;;;14.60;9.65;;;;;;;17.89;55.56;102264.53;4960216;28;113328;-63
2021/09/03 01:07:01;;;;;;;17.77;10.27;;;;;;;17.86;55.50;102267.38;4961709;28;124376;-63
2021/09/03 01:09:28;;;;;;;16.70;10.27;;;;;;;17.84;55.34;102263.88;4978135;28;124065;-64
2021/09/03 01:11:55;;;;;;;16.67;9.77;;;;;;;17.81;55.60;102258.69;4977304;28;114224;-64
2021/09/03 01:14:23;;;;;;;15.45;10.15;;;;;;;17.78;55.59;102269.56;4976793;28;113992;-64
2021/09/03 01:16:50;;;;;;;17.70;10.32;;;;;;;17.75;55.53;102259.00;4978371;28;124066;-64
2021/09/03 01:19:17;;;;;;;16.85;11.15;;;;;;;17.73;55.56;102255.53;4973670;28;123774;-64
2021/09/03 01:21:52;;;;;;;16.88;10.82;;;;;;;17.69;55.64;102255.69;4980788;28;114091;-64
2021/09/03 01:24:20;;;;;;;18.10;11.35;;;;;;;17.66;55.49;102261.22;4987433;28;113741;-63
2021/09/03 01:26:47;;;;;;;19.08;11.40;;;;;;;17.65;55.52;102253.25;4983487;28;124795;-64
2021/09/03 01:29:14;;;;;;;20.65;11.10;;;;;;;17.63;55.58;102250.66;4974237;28;124000;-64
2021/09/03 01:31:41;;;;;;;16.95;11.07;;;;;;;17.61;55.64;102246.31;4964452;28;115132;-64
2021/09/03 01:34:09;;;;;;;16.75;10.63;;;;;;;17.57;55.72;102245.59;4970480;28;114979;-64
2021/09/03 01:36:36;;;;;;;19.13;11.32;;;;;;;17.56;55.88;102243.03;4965458;28;124854;-64
2021/09/03 01:39:04;;;;;;;16.20;11.07;;;;;;;17.54;55.91;102245.78;4980865;28;123755;-64
2021/09/03 01:41:31;;;;;;;19.95;11.35;;;;;;;17.52;55.69;102236.97;4982010;28;114550;-64
2021/09/03 01:43:58;;;;;;;19.65;11.25;;;;;;;17.50;55.81;102238.88;4971714;28;114090;-63
2021/09/03 01:46:25;;;;;;;19.13;11.18;;;;;;;17.47;55.95;102239.00;4973098;28;124373;-63
2021/09/03 01:48:53;;;;;;;20.20;11.80;;;;;;;17.45;55.89;102231.06;4973697;28;124370;-64
2021/09/03 01:51:20;;;;;;;16.25;10.63;;;;;;;17.44;55.83;102228.44;4968377;28;114396;-64
2021/09/03 01:53:47;;;;;;;20.60;12.07;;;;;;;17.43;55.82;102226.72;4963541;28;113979;-64
2021/09/03 01:56:14;;;;;;;21.38;11.93;;;;;;;17.41;56.07;102228.63;4976173;28;124080;-63
2021/09/03 01:58:41;;;;;;;19.25;11.52;;;;;;;17.37;56.04;102222.56;4972171;28;123872;-64
2021/09/03 02:01:08;;;;;;;18.73;11.55;;;;;;;17.35;55.91;102223.56;4973647;28;114822;-64
2021/09/03 02:03:35;;;;;;;17.25;11.23;;;;;;;17.32;56.00;102222.78;5011782;22;113373;-64
2021/09/03 02:06:02;;;;;;;18.83;11.98;;;;;;;17.30;55.94;102221.13;4999791;28;125590;-63
2021/09/03 02:08:31;;;;;;;20.42;12.35;;;;;;;17.29;56.11;102222.94;5013837;28;124349;-65
2021/09/03 02:10:58;;;;;;;21.10;12.15;;;;;;;17.25;56.49;102216.03;5021764;28;114275;-65
2021/09/03 02:13:25;;;;;;;20.65;12.48;;;;;;;17.23;56.41;102215.22;5017315;28;115782;-65
2021/09/03 02:15:52;;;;;;;16.65;11.52;;;;;;;17.22;56.54;102210.81;5021673;28;124133;-65
2021/09/03 02:18:19;;;;;;;18.13;11.23;;;;;;;17.19;56.45;102212.78;5005266;28;122999;-65
2021/09/03 02:20:47;;;;;;;20.33;11.45;;;;;;;17.17;56.62;102209.31;5010809;28;115261;-65
2021/09/03 02:23:14;;;;;;;15.88;10.77;;;;;;;17.15;56.54;102209.38;5027846;28;115665;-65
2021/09/03 02:25:41;;;;;;;17.38;11.40;;;;;;;17.12;56.42;102213.09;5026574;28;124422;-65
2021/09/03 02:28:08;;;;;;;19.42;11.13;;;;;;;17.11;56.46;102211.34;5023889;28;124038;-65
2021/09/03 02:30:36;;;;;;;19.77;10.68;;;;;;;17.09;56.43;102207.03;5014236;28;114616;-65
2021/09/03 02:33:03;;;;;;;16.95;11.10;;;;;;;17.07;56.45;102209.78;5015079;28;114126;-65
2021/09/03 02:35:30;;;;;;;19.73;11.52;;;;;;;17.07;56.50;102208.94;5012249;28;124200;-66
2021/09/03 02:37:57;;;;;;;20.27;11.60;;;;;;;17.04;56.53;102209.06;5026495;28;123737;-66
2021/09/03 02:40:26;;;;;;;18.92;11.30;;;;;;;17.02;56.61;102206.47;5020133;28;114391;-67
2021/09/03 02:42:53;;;;;;;20.60;12.00;;;;;;;17.02;56.68;102205.59;5018050;28;113550;-67
2021/09/03 02:45:21;;;;;;;18.08;11.27;;;;;;;17.01;56.72;102203.84;5018445;28;123599;-66
2021/09/03 02:47:50;;;;;;;21.88;12.68;;;;;;;17.00;56.73;102202.16;5002657;28;123897;-66
2021/09/03 02:50:18;;;;;;;20.30;11.73;;;;;;;16.98;56.67;102198.69;5016537;28;114278;-66
2021/09/03 02:52:46;;;;;;;21.02;12.27;;;;;;;16.95;56.59;102198.81;5003397;28;113016;-66
2021/09/03 02:55:13;;;;;;;19.42;11.80;;;;;;;16.93;56.71;102191.75;5016490;28;125834;-66
2021/09/03 02:57:41;;;;;;;19.67;11.70;;;;;;;16.91;56.75;102182.94;5021824;28;124655;-66
2021/09/03 03:00:09;;;;;;;17.65;10.75;;;;;;;16.89;56.74;102174.09;5021433;28;115054;-66
2021/09/03 03:02:36;;;;;;;18.77;11.10;;;;;;;16.88;56.65;102172.38;5026277;28;114051;-66
2021/09/03 03:05:05;;;;;;;15.90;10.75;;;;;;;16.86;56.60;102179.63;5022337;28;124262;-66
2021/09/03 03:07:32;;;;;;;18.58;11.27;;;;;;;16.82;56.64;102172.69;5017866;28;124614;-66
2021/09/03 03:09:59;;;;;;;17.77;10.52;;;;;;;16.80;56.59;102176.34;5018132;28;115086;-64
2021/09/03 03:12:27;;;;;;;20.08;11.73;;;;;;;16.76;56.59;102167.59;5016155;28;115149;-66
2021/09/03 03:14:54;;;;;;;17.42;10.65;;;;;;;16.72;56.66;102171.38;5017038;28;123773;-64
2021/09/03 03:17:21;;;;;;;19.40;11.15;;;;;;;16.69;56.65;102171.53;5017028;28;124198;-65
2021/09/03 03:19:48;;;;;;;18.33;11.68;;;;;;;16.68;56.81;102169.78;5019187;28;114334;-63
2021/09/03 03:22:15;;;;;;;21.08;12.13;;;;;;;16.65;56.95;102164.59;5020944;28;113862;-63
2021/09/03 03:24:42;;;;;;;19.50;12.18;;;;;;;16.63;56.97;102167.38;5019659;27;124824;-63
2021/09/03 03:27:10;;;;;;;20.00;12.00;;;;;;;16.61;57.01;102157.66;5022894;28;124523;-63
2021/09/03 03:29:37;;;;;;;23.90;13.35;;;;;;;16.60;56.88;102150.59;5023384;28;115074;-63
2021/09/03 03:32:04;;;;;;;19.70;11.48;;;;;;;16.60;57.07;102155.94;5020122;28;113949;-64
2021/09/03 03:34:32;;;;;;;18.92;11.80;;;;;;;16.60;57.28;102150.59;5020295;28;124382;-63
2021/09/03 03:36:59;;;;;;;20.27;12.27;;;;;;;16.59;57.28;102154.19;5011763;28;123262;-63
2021/09/03 03:39:26;;;;;;;21.50;12.07;;;;;;;16.58;57.32;102153.34;5023888;28;114755;-63
2021/09/03 03:41:53;;;;;;;21.38;11.63;;;;;;;16.57;57.34;102148.06;5021591;28;115437;-63
2021/09/03 03:44:21;;;;;;;21.73;12.35;;;;;;;16.56;57.32;102149.88;5014149;28;123985;-64
2021/09/03 03:46:48;;;;;;;19.63;12.25;;;;;;;16.57;57.27;102145.38;5021185;28;123753;-63
2021/09/03 03:49:15;;;;;;;18.95;12.18;;;;;;;16.55;57.30;102149.00;5018172;28;114051;-63
2021/09/03 03:51:44;;;;;;;22.48;12.13;;;;;;;16.55;57.19;102143.63;5007424;28;114094;-64
2021/09/03 03:54:11;;;;;;;23.40;12.50;;;;;;;16.53;57.33;102142.84;5017822;28;124233;-63
2021/09/03 03:56:38;;;;;;;22.88;11.75;;;;;;;16.51;57.35;102142.06;5017408;28;123944;-64
2021/09/03 03:59:05;;;;;;;22.35;12.43;;;;;;;16.50;57.44;102143.03;5010287;28;115480;-63
2021/09/03 04:01:33;;;;;;;22.90;13.00;;;;;;;16.48;57.47;102147.59;5006192;28;115491;-64
2021/09/03 04:04:01;;;;;;;20.42;12.15;;;;;;;16.46;57.44;102144.13;5023196;28;124854;-64
2021/09/03 04:06:28;;;;;;;21.20;12.52;;;;;;;16.46;57.37;102144.13;5007888;28;122761;-63
2021/09/03 04:08:55;;;;;;;26.50;13.25;;;;;;;16.44;57.60;102156.66;5002273;28;114419;-65
2021/09/03 04:11:22;;;;;;;27.50;14.50;;;;;;;16.42;57.64;102147.00;5001274;28;113041;-65
2021/09/03 04:13:49;;;;;;;24.52;13.93;;;;;;;16.40;57.88;102147.06;5016703;28;124408;-65
2021/09/03 04:16:16;;;;;;;22.10;13.23;;;;;;;16.37;57.93;102144.56;5015848;28;124147;-65
2021/09/03 04:18:43;;;;;;;22.85;12.95;;;;;;;16.36;58.25;102142.81;5017303;28;114371;-65
2021/09/03 04:21:11;;;;;;;22.83;13.32;;;;;;;16.36;58.10;102145.50;5020941;28;114636;-65
2021/09/03 04:23:38;;;;;;;24.00;13.05;;;;;;;16.37;58.26;102143.69;5019533;27;124232;-64
2021/09/03 04:26:05;;;;;;;22.20;13.38;;;;;;;16.37;58.25;102144.56;5019658;28;123893;-64
2021/09/03 04:28:32;;;;;;;22.58;13.13;;;;;;;16.37;58.29;102139.22;5019755;28;114094;-65
2021/09/03 04:30:59;;;;;;;23.33;13.82;;;;;;;16.38;58.23;102140.94;5012002;28;113944;-65
2021/09/03 04:33:26;;;;;;;28.20;14.20;;;;;;;16.37;58.18;102144.56;5021858;27;124039;-65
2021/09/03 04:35:53;;;;;;;23.50;13.15;;;;;;;16.38;58.40;102138.25;5017608;28;124617;-65
2021/09/03 04:38:22;;;;;;;28.50;14.25;;;;;;;16.36;58.39;102142.81;5013524;28;114302;-63
2021/09/03 04:40:49;;;;;;;23.23;13.93;;;;;;;16.37;58.62;102139.22;5023288;28;114365;-63
2021/09/03 04:43:16;;;;;;;24.10;13.75;;;;;;;16.37;58.72;102141.91;5021326;28;123915;-63
2021/09/03 04:45:43;;;;;;;23.88;13.70;;;;;;;16.38;58.48;102140.94;5023026;28;123813;-63
2021/09/03 04:48:10;;;;;;;27.85;14.73;;;;;;;16.37;58.70;102138.31;5021944;28;114827;-63
2021/09/03 04:50:37;;;;;;;26.30;13.75;;;;;;;16.35;58.61;102141.97;5018428;28;115892;-63
2021/09/03 04:53:04;;;;;;;24.67;14.40;;;;;;;16.34;58.60;102142.03;5011023;28;124448;-62
2021/09/03 04:55:32;;;;;;;27.02;14.90;;;;;;;16.32;58.75;102141.25;5024178;28;124445;-63
2021/09/03 04:57:59;;;;;;;27.75;14.07;;;;;;;16.32;58.78;102135.91;5024459;28;114529;-63
2021/09/03 05:00:26;;;;;;;26.90;14.90;;;;;;;16.31;58.85;102129.69;5017500;28;114623;-63
2021/09/03 05:02:53;;;;;;;27.25;14.35;;;;;;;16.29;58.99;102131.56;5007933;28;124427;-63
2021/09/03 05:05:20;;;;;;;26.38;14.65;;;;;;;16.29;59.03;102125.34;5011293;28;123027;-63
2021/09/03 05:07:48;;;;;;;24.95;13.63;;;;;;;16.28;59.09;102128.97;5023601;28;114220;-64
2021/09/03 05:10:15;;;;;;;26.42;14.60;;;;;;;16.27;59.16;102127.22;5012784;28;115007;-63
2021/09/03 05:12:42;;;;;;;24.88;14.10;;;;;;;16.27;59.17;102127.22;4999835;28;124091;-63
2021/09/03 05:15:12;;;;;;;28.55;14.07;;;;;;;16.25;59.31;102121.94;5014853;28;123899;-63
2021/09/03 05:17:42;;;;;;;26.90;15.05;;;;;;;16.25;59.27;102129.09;5011046;28;114187;-65
2021/09/03 05:20:11;;;;;;;24.73;14.35;;;;;;;16.27;59.35;102121.88;5013629;28;114361;-65
2021/09/03 05:22:38;;;;;;;26.30;15.45;;;;;;;16.27;59.28;102129.91;5010162;28;124111;-65
2021/09/03 05:25:06;;;;;;;29.35;14.65;;;;;;;16.29;59.42;102128.00;5021318;28;123945;-64
2021/09/03 05:27:33;;;;;;;26.10;13.95;;;;;;;16.29;59.46;102136.03;5019307;28;114416;-64
2021/09/03 05:30:00;;;;;;;26.65;15.27;;;;;;;16.29;59.52;102128.00;5023373;28;114106;-64
2021/09/03 05:32:27;;;;;;;27.80;15.07;;;;;;;16.31;59.58;102134.16;5007253;28;123787;-65
2021/09/03 05:34:54;;;;;;;25.67;14.13;;;;;;;16.32;59.58;102127.88;5011407;28;123999;-65
2021/09/03 05:37:21;;;;;;;27.02;14.55;;;;;;;16.33;59.65;102126.91;5020110;28;115554;-65
2021/09/03 05:39:49;;;;;;;26.83;15.07;;;;;;;16.33;59.58;102126.91;4983083;28;114140;-66
2021/09/03 05:42:18;;;;;;;25.60;14.10;;;;;;;16.34;59.77;102129.53;5008437;28;123726;-65
2021/09/03 05:44:45;;;;;;;25.17;14.73;;;;;;;16.37;59.71;102133.88;5014661;28;124641;-65
2021/09/03 05:47:12;;;;;;;26.70;15.02;;;;;;;16.40;59.76;102136.38;4995233;28;113257;-67
2021/09/03 05:49:39;;;;;;;26.65;14.93;;;;;;;16.43;59.88;102133.56;5000954;28;112940;-65
2021/09/03 05:52:06;;;;;;;28.13;14.68;;;;;;;16.46;59.96;102133.44;5019797;28;124849;-65
2021/09/03 05:54:33;;;;;;;27.00;15.18;;;;;;;16.49;59.96;102133.25;4999006;28;122820;-65
2021/09/03 05:57:01;;;;;;;25.88;14.70;;;;;;;16.53;59.83;102139.31;5021356;27;114218;-64
2021/09/03 05:59:28;;;;;;;27.63;14.88;;;;;;;16.55;60.05;102127.59;5001815;28;112950;-64
2021/09/03 06:01:56;;;;;;;28.52;15.43;;;;;;;16.58;60.09;102123.91;5012594;28;127027;-64
2021/09/03 06:04:24;;;;;;;27.52;14.50;;;;;;;16.61;60.11;102137.13;5016787;28;124381;-64
2021/09/03 06:06:51;;;;;;;28.95;16.02;;;;;;;16.64;60.18;102141.47;5020303;28;114220;-64
2021/09/03 06:09:18;;;;;;;27.65;15.15;;;;;;;16.66;60.34;102134.22;5016382;28;113957;-64
2021/09/03 06:11:45;;;;;;;30.58;15.73;;;;;;;16.69;60.36;102139.44;4970910;28;123121;-64
2021/09/03 06:14:12;;;;;;;29.38;16.23;;;;;;;16.73;60.50;102135.66;5014365;28;124371;-64
2021/09/03 06:16:40;;;;;;;29.35;16.10;;;;;;;16.77;60.77;102137.25;4998366;28;113564;-64
2021/09/03 06:19:07;;;;;;;29.02;16.05;;;;;;;16.82;60.56;102139.66;5014723;28;113968;-64
2021/09/03 06:21:34;;;;;;;32.55;17.20;;;;;;;16.87;60.66;102138.53;5011667;28;123763;-64
2021/09/03 06:24:01;;;;;;;30.48;16.25;;;;;;;16.91;60.85;102140.13;5008572;28;124730;-65
2021/09/03 06:26:28;;;;;;;29.35;16.40;;;;;;;16.98;60.81;102146.00;5010324;28;115675;-64
2021/09/03 06:28:55;;;;;;;30.05;16.52;;;;;;;17.04;60.93;102145.69;5010599;28;115771;-65
2021/09/03 06:31:22;;;;;;;30.55;16.98;;;;;;;17.09;60.83;102137.44;5014243;28;124770;-65
2021/09/03 06:33:50;;;;;;;29.15;16.10;;;;;;;17.14;61.13;102140.75;5010225;28;124026;-65
2021/09/03 06:36:17;;;;;;;30.13;16.75;;;;;;;17.20;60.97;102144.91;4988799;28;113997;-65
2021/09/03 06:38:44;;;;;;;29.00;16.70;;;;;;;17.26;61.18;102149.94;5014800;28;113969;-66
2021/09/03 06:41:11;;;;;;;31.05;17.77;;;;;;;17.35;61.27;102143.22;5011180;28;124757;-67
2021/09/03 06:43:38;;;;;;;30.95;17.15;;;;;;;17.41;61.18;102142.91;5009773;28;124055;-66
2021/09/03 06:46:05;;;;;;;29.88;16.92;;;;;;;17.47;61.29;102139.91;5016780;28;114644;-66
2021/09/03 06:48:32;;;;;;;31.48;16.90;;;;;;;17.57;61.41;102143.81;4993681;28;114242;-67
2021/09/03 06:50:59;;;;;;;28.10;16.48;;;;;;;17.65;61.31;102141.59;5002317;28;124084;-67
2021/09/03 06:53:26;;;;;;;30.52;17.20;;;;;;;17.74;61.55;102150.94;5007524;28;123795;-67
2021/09/03 06:55:53;;;;;;;28.80;16.83;;;;;;;17.86;61.47;102149.44;5013415;28;114361;-66
2021/09/03 06:58:21;;;;;;;30.92;16.20;;;;;;;17.99;61.28;102150.50;5010712;28;114729;-66
2021/09/03 07:00:48;;;;;;;28.88;16.58;;;;;;;18.11;61.24;102148.94;4992744;28;124118;-67
2021/09/03 07:03:16;;;;;;;28.02;15.43;;;;;;;18.23;61.16;102145.59;5014706;28;123833;-66
2021/09/03 07:05:43;;;;;;;27.45;16.67;;;;;;;18.39;61.26;102142.03;5019189;28;114111;-66
2021/09/03 07:08:10;;;;;;;30.65;16.90;;;;;;;18.55;60.99;102142.00;5017112;28;114518;-66
2021/09/03 07:10:37;;;;;;;29.65;16.55;;;;;;;18.69;60.86;102147.44;4996499;28;124928;-66
2021/09/03 07:13:04;;;;;;;28.23;16.33;;;;;;;18.78;60.46;102141.53;4984315;28;123329;-66
2021/09/03 07:15:31;;;;;;;27.70;16.00;;;;;;;18.86;60.28;102141.09;5009765;28;115071;-66
2021/09/03 07:17:59;;;;;;;27.23;15.52;;;;;;;18.97;60.42;102145.84;5006494;28;114863;-66
2021/09/03 07:20:26;;;;;;;26.92;16.17;;;;;;;19.06;60.18;102153.31;5010210;28;124176;-66
2021/09/03 07:22:53;;;;;;;27.00;15.77;;;;;;;19.16;60.28;102154.50;5008578;28;123287;-66
2021/09/03 07:25:20;;;;;;;27.23;16.20;;;;;;;19.28;60.04;102152.03;5000488;28;114281;-66
2021/09/03 07:27:47;;;;;;;28.13;16.50;;;;;;;19.37;60.12;102146.09;4992839;28;113890;-66
2021/09/03 07:30:14;;;;;;;25.45;15.80;;;;;;;19.44;59.80;102139.41;5010363;28;124052;-68
2021/09/03 07:32:43;;;;;;;28.52;15.93;;;;;;;19.53;59.65;102136.13;5013871;28;124675;-66
2021/09/03 07:35:12;;;;;;;28.17;16.38;;;;;;;19.61;59.38;102136.53;5011604;28;114444;-66
2021/09/03 07:37:42;;;;;;;27.65;17.10;;;;;;;19.67;59.51;102131.72;5010962;28;114280;-66
2021/09/03 07:40:10;;;;;;;26.20;16.27;;;;;;;19.73;59.46;102136.75;5002074;28;123951;-64
2021/09/03 07:42:39;;;;;;;27.85;16.08;;;;;;;19.81;59.33;102129.03;5011316;28;123612;-64
2021/09/03 07:45:07;;;;;;;23.75;14.32;;;;;;;19.90;59.60;102133.84;4980153;28;113742;-64
2021/09/03 07:47:34;;;;;;;26.50;16.83;;;;;;;20.02;59.37;102133.06;5008476;28;114138;-65
2021/09/03 07:50:18;;;;;;;27.60;15.55;;;;;;;20.15;59.23;102132.25;4988830;28;124340;-64
2021/09/03 07:52:45;;;;;;;28.52;15.35;;;;;;;20.27;59.26;102120.69;5009668;28;124507;-65
2021/09/03 07:55:34;;;;;;;24.05;15.13;;;;;;;20.41;59.26;102133.22;4991515;28;114325;-64
2021/09/03 07:58:03;;;;;;;24.90;14.93;;;;;;;20.52;59.00;102127.16;5013802;28;113838;-65
2021/09/03 08:00:31;;;;;;;26.63;14.85;;;;;;;20.61;58.84;102129.25;4975604;28;122969;-66
2021/09/03 08:02:59;;;;;;;24.20;14.68;;;;;;;20.71;58.63;102126.81;5028021;22;124156;-65
2021/09/03 08:05:26;;;;;;;24.90;15.27;;;;;;;20.78;58.50;102120.03;5004885;28;115878;-65
2021/09/03 08:07:53;;;;;;;23.00;14.68;;;;;;;20.87;58.41;102121.22;5000378;28;115001;-65
2021/09/03 08:10:20;;;;;;;27.42;14.90;;;;;;;20.95;58.16;102132.34;4991857;28;124752;-65
2021/09/03 08:12:48;;;;;;;23.20;14.95;;;;;;;21.03;58.12;102124.59;4993494;28;123727;-65
2021/09/03 08:15:16;;;;;;;25.83;14.40;;;;;;;21.13;58.23;102130.22;4994738;28;115152;-65
2021/09/03 08:17:43;;;;;;;24.60;15.23;;;;;;;21.26;57.96;102127.53;4975555;28;113139;-65
2021/09/03 08:20:13;;;;;;;22.88;14.18;;;;;;;21.36;57.99;102121.41;4992591;28;124368;-65
2021/09/03 08:22:42;;;;;;;22.95;13.85;;;;;;;21.51;57.89;102124.00;4990945;28;124269;-65
2021/09/03 08:25:09;;;;;;;23.67;14.00;;;;;;;21.66;57.58;102127.44;4986361;28;115114;-65
2021/09/03 08:27:36;;;;;;;21.35;14.23;;;;;;;21.78;57.52;102113.06;5008108;28;114444;-66
2021/09/03 08:30:06;;;;;;;22.95;14.27;;;;;;;21.88;57.44;102116.81;4988855;28;124774;-65
2021/09/03 08:32:33;;;;;;;20.67;13.90;;;;;;;22.02;57.10;102117.63;4990655;28;124310;-65
2021/09/03 08:35:01;;;;;;;19.88;13.63;;;;;;;22.10;57.00;102109.88;4971357;28;114535;-65
2021/09/03 08:37:29;;;;;;;21.58;13.80;;;;;;;22.19;56.88;102114.56;4973200;28;114638;-65
2021/09/03 08:39:56;;;;;;;22.38;13.38;;;;;;;22.31;56.76;102115.53;4996133;28;124784;-65
2021/09/03 08:42:23;;;;;;;21.63;12.55;;;;;;;22.42;56.45;102109.34;4972430;28;124604;-65
2021/09/03 08:44:51;;;;;;;20.00;13.25;;;;;;;22.46;56.29;102106.28;4973032;28;114035;-66
2021/09/03 08:47:20;;;;;;;23.33;13.10;;;;;;;22.53;56.10;102103.97;4989581;28;113887;-66
2021/09/03 08:49:50;;;;;;;20.10;13.27;;;;;;;22.61;56.10;102115.06;4969182;28;124045;-64
2021/09/03 08:52:18;;;;;;;20.13;11.88;;;;;;;22.73;56.15;102108.72;4978779;28;123856;-65
2021/09/03 08:54:45;;;;;;;18.75;12.30;;;;;;;22.85;55.96;102111.44;4990070;28;115447;-63
2021/09/03 08:57:17;;;;;;;21.40;13.38;;;;;;;22.95;55.86;102117.88;4990121;28;115049;-64
2021/09/03 08:59:44;;;;;;;21.02;12.75;;;;;;;23.06;55.46;102115.22;4994836;28;124150;-64
2021/09/03 09:02:14;;;;;;;17.77;11.85;;;;;;;23.15;55.47;102118.19;4994187;28;123776;-64
2021/09/03 09:04:44;;;;;;;19.42;12.20;;;;;;;23.25;55.28;102124.59;4996841;28;114276;-64
2021/09/03 09:07:12;;;;;;;17.45;11.80;;;;;;;23.37;55.20;102129.03;4983661;28;113886;-63
2021/09/03 09:09:43;;;;;;;22.48;12.75;;;;;;;23.50;55.12;102124.34;4986925;28;123723;-64
2021/09/03 09:12:13;;;;;;;19.27;12.30;;;;;;;23.62;54.77;102121.66;4985390;28;124826;-64
2021/09/03 09:15:08;;;;;;;19.45;11.75;;;;;;;23.76;54.72;102123.28;4989392;28;114094;-64
2021/09/03 09:17:40;;;;;;;19.75;12.95;;;;;;;23.86;53.95;102122.41;4977004;28;114115;-65
2021/09/03 09:20:13;;;;;;;19.80;12.32;;;;;;;23.96;53.63;102113.53;4982537;28;124095;-65
2021/09/03 09:22:54;;;;;;;17.48;12.07;;;;;;;24.00;53.84;102115.03;4988508;28;124358;-65
2021/09/03 09:25:36;;;;;;;17.13;10.98;;;;;;;24.09;53.53;102114.25;4985724;28;113481;-65
2021/09/03 09:28:15;;;;;;;18.10;11.10;;;;;;;24.15;53.37;102108.34;4978982;28;99503;-72
2021/09/03 09:30:43;;;;;;;18.90;12.38;;;;;;;24.23;53.10;102111.28;4962277;28;125009;-72
2021/09/03 09:33:13;;;;;;;18.13;10.15;;;;;;;24.29;53.24;102108.03;4970500;28;123995;-72
2021/09/03 09:35:46;;;;;;;15.55;10.40;;;;;;;24.41;52.68;102113.44;4958018;28;112992;-70
2021/09/03 09:38:16;;;;;;;14.57;9.45;;;;;;;24.48;52.32;102109.22;4990211;28;113907;-70
2021/09/03 09:40:50;;;;;;;14.50;9.10;;;;;;;24.55;51.73;102112.31;4989573;28;124481;-69
2021/09/03 09:43:39;;;;;;;13.70;9.00;;;;;;;24.57;51.86;102103.06;4980286;28;123691;-69
2021/09/03 09:46:13;;;;;;;12.95;8.52;;;;;;;24.65;51.25;102110.53;4962469;28;115149;-69
2021/09/03 09:48:49;;;;;;;12.38;7.88;;;;;;;24.70;51.53;102092.03;4985094;28;114775;-69
2021/09/03 09:51:21;;;;;;;13.25;8.48;;;;;;;24.80;51.37;102086.69;4991466;28;124621;-70
2021/09/03 09:54:14;;;;;;;15.13;9.00;;;;;;;24.91;51.35;102093.91;4996572;28;123732;-70
2021/09/03 09:56:52;;;;;;;15.38;10.45;;;;;;;25.03;51.23;102088.28;4989784;28;115224;-70
2021/09/03 09:59:22;;;;;;;15.93;9.90;;;;;;;25.13;51.19;102084.75;5009331;28;114630;-70
2021/09/03 10:01:52;;;;;;;17.25;9.48;;;;;;;25.22;50.96;102081.22;5005932;28;123570;-70
2021/09/03 10:04:21;;;;;;;11.98;8.40;;;;;;;25.31;50.65;102085.88;5013080;28;124446;-69
2021/09/03 10:06:51;;;;;;;13.02;8.65;;;;;;;25.39;49.89;102087.91;5004908;28;114965;-69
2021/09/03 10:09:23;;;;;;;15.38;10.02;;;;;;;25.45;50.30;102088.25;4986057;28;113441;-70
2021/09/03 10:11:52;;;;;;;12.93;8.38;;;;;;;25.55;50.64;102092.84;4996173;28;124293;-70
2021/09/03 10:14:24;;;;;;;11.43;7.15;;;;;;;25.63;49.91;102079.44;4997257;28;123197;-70
2021/09/03 10:16:53;;;;;;;12.75;7.57;;;;;;;25.70;49.55;102080.63;4990790;28;113455;-70
2021/09/03 10:19:25;;;;;;;11.98;7.68;;;;;;;25.78;49.49;102078.06;4996811;28;113948;-70
2021/09/03 10:22:12;;;;;;;14.07;7.68;;;;;;;25.87;49.38;102075.53;4993401;28;124624;-70
2021/09/03 10:24:43;;;;;;;11.27;7.60;;;;;;;25.95;48.77;102070.28;4994197;28;123400;-70
2021/09/03 10:27:12;;;;;;;13.27;8.05;;;;;;;26.04;49.05;102066.72;4990923;28;114647;-70
2021/09/03 10:29:41;;;;;;;11.85;7.82;;;;;;;26.13;48.44;102059.59;4988667;28;114486;-72
2021/09/03 10:32:15;;;;;;;12.05;7.45;;;;;;;26.20;48.65;102061.59;4980641;28;123947;-69
2021/09/03 10:34:51;;;;;;;9.40;7.25;;;;;;;26.29;48.12;102059.03;4988988;28;124398;-70
2021/09/03 10:37:18;;;;;;;12.57;8.20;;;;;;;26.36;47.83;102060.16;4972599;28;114021;-69
2021/09/03 10:40:06;;;;;;;11.73;8.05;;;;;;;26.40;47.37;102061.59;4989151;28;115225;-71
2021/09/03 10:42:34;;;;;;;10.85;7.75;;;;;;;26.45;47.88;102059.31;4982992;28;124830;-70
2021/09/03 10:45:01;;;;;;;11.68;8.23;;;;;;;26.51;47.59;102053.28;4978595;28;124500;-70
2021/09/03 10:47:33;;;;;;;14.60;8.40;;;;;;;26.57;47.69;102052.72;4983502;28;114334;-69
2021/09/03 10:50:16;;;;;;;12.55;8.30;;;;;;;26.64;47.42;102046.75;4988121;28;113718;-70
2021/09/03 10:53:02;;;;;;;13.15;8.35;;;;;;;26.69;47.49;102049.88;4990527;28;123845;-70
2021/09/03 10:55:51;;;;;;;11.57;7.10;;;;;;;26.75;47.31;102043.88;4978965;28;122985;-69
2021/09/03 10:58:36;;;;;;;10.82;7.63;;;;;;;26.85;47.16;102033.81;4986685;28;114433;-69
2021/09/03 11:01:09;;;;;;;;;;;;;;;26.89;47.87;102035.22;4989253;28;113517;-70
2021/09/03 11:03:52;;;;;;;11.80;6.88;;;;;;;26.97;46.81;102043.53;4974799;28;124816;-70
2021/09/03 11:06:28;;;;;;;12.00;6.57;;;;;;;27.04;45.92;102037.50;4961018;28;122861;-70
2021/09/03 11:08:59;;;;;;;10.70;6.68;;;;;;;27.07;45.71;102026.28;4977345;28;114219;-70